createdAt,value
2022-11-17T00:01:39.910Z,98897.75
2022-11-17T00:04:08.495Z,98893.59
2022-11-17T00:06:36.977Z,98898.69
2022-11-17T00:09:05.424Z,98902.28
2022-11-17T00:11:53.870Z,98880.06
2022-11-17T00:14:33.338Z,98884.53
2022-11-17T00:17:11.662Z,98892.59
2022-11-17T00:19:57.579Z,98882.84
2022-11-17T00:22:26.721Z,98886.13
2022-11-17T00:24:55.199Z,98884.59
2022-11-17T00:27:23.620Z,98889.09
2022-11-17T00:29:52.344Z,98894.53
2022-11-17T00:32:38.728Z,98890.22
2022-11-17T00:35:07.648Z,98885.13
2022-11-17T00:37:39.158Z,98882.66
2022-11-17T00:40:08.743Z,98875.63
2022-11-17T00:42:37.151Z,98872.41
2022-11-17T00:45:05.893Z,98867.47
2022-11-17T00:47:37.690Z,98871.47
2022-11-17T00:50:06.439Z,98871.97
2022-11-17T00:52:34.891Z,98870.28
2022-11-17T00:55:03.774Z,98872.09
2022-11-17T00:57:32.304Z,98867.00
2022-11-17T01:00:00.760Z,98865.34
2022-11-17T01:02:29.295Z,98867.03
2022-11-17T01:04:57.739Z,98861.06
2022-11-17T01:07:26.240Z,98870.81
2022-11-17T01:09:54.826Z,98872.63
2022-11-17T01:12:23.273Z,98871.63
2022-11-17T01:14:51.857Z,98866.75
2022-11-17T01:17:20.262Z,98861.47
2022-11-17T01:19:50.547Z,98851.75
2022-11-17T01:22:19.027Z,98855.19
2022-11-17T01:24:47.422Z,98841.88
2022-11-17T01:27:16.003Z,98846.88
2022-11-17T01:29:44.576Z,98830.91
2022-11-17T01:32:13.125Z,98819.50
2022-11-17T01:34:41.516Z,98822.47
2022-11-17T01:37:22.171Z,98817.78
2022-11-17T01:39:51.422Z,98817.69
2022-11-17T01:42:24.581Z,98822.34
2022-11-17T01:45:25.182Z,98819.72
2022-11-17T01:47:54.103Z,98818.75
2022-11-17T01:50:35.058Z,98820.75
2022-11-17T01:53:09.434Z,98815.75
2022-11-17T01:55:45.798Z,98815.28
2022-11-17T01:58:21.289Z,98835.53
2022-11-17T02:00:49.956Z,98808.13
2022-11-17T02:03:18.647Z,98809.19
2022-11-17T02:06:10.821Z,98807.09
2022-11-17T02:08:41.529Z,98804.91
2022-11-17T02:11:16.961Z,98814.09
2022-11-17T02:13:45.489Z,98824.31
2022-11-17T02:16:15.838Z,98827.03
2022-11-17T02:18:45.692Z,98822.69
2022-11-17T02:21:36.872Z,98812.50
2022-11-17T02:24:49.070Z,98814.81
2022-11-17T02:27:41.519Z,98820.41
2022-11-17T02:30:20.838Z,98813.75
2022-11-17T02:33:09.801Z,98806.50
2022-11-17T02:35:50.235Z,98810.13
2022-11-17T02:39:06.243Z,98812.78
2022-11-17T02:41:56.453Z,98807.69
2022-11-17T02:44:37.925Z,98814.22
2022-11-17T02:47:19.695Z,98799.63
2022-11-17T02:49:54.036Z,98810.06
2022-11-17T02:52:22.662Z,98804.38
2022-11-17T02:54:51.137Z,98811.66
2022-11-17T02:57:38.335Z,98808.31
2022-11-17T03:00:14.340Z,98794.66
2022-11-17T03:03:22.338Z,98801.69
2022-11-17T03:06:21.571Z,98790.53
2022-11-17T03:09:02.160Z,98792.25
2022-11-17T03:11:47.269Z,98778.88
2022-11-17T03:14:29.695Z,98769.31
2022-11-17T03:17:11.778Z,98783.13
2022-11-17T03:19:46.257Z,98787.72
2022-11-17T03:22:35.704Z,98773.06
2022-11-17T03:25:08.391Z,98776.00
2022-11-17T03:27:46.055Z,98773.38
2022-11-17T03:30:14.912Z,98770.13
2022-11-17T03:32:50.906Z,98782.75
2022-11-17T03:35:26.972Z,98771.94
2022-11-17T03:38:01.480Z,98780.16
2022-11-17T03:40:32.129Z,98779.19
2022-11-17T03:43:04.076Z,98789.13
2022-11-17T03:45:37.155Z,98776.06
2022-11-17T03:48:23.076Z,98766.06
2022-11-17T03:51:00.818Z,98768.38
2022-11-17T03:53:30.726Z,98761.63
2022-11-17T03:56:02.429Z,98758.31
2022-11-17T03:58:36.178Z,98764.25
2022-11-17T04:01:06.947Z,98757.69
2022-11-17T04:03:36.206Z,98749.75
2022-11-17T04:06:04.983Z,98745.31
2022-11-17T04:08:33.428Z,98745.78
2022-11-17T04:11:19.214Z,98737.75
2022-11-17T04:14:05.005Z,98723.88
2022-11-17T04:16:33.425Z,98741.03
2022-11-17T04:19:01.875Z,98728.38
2022-11-17T04:21:30.395Z,98733.94
2022-11-17T04:23:58.787Z,98736.09
2022-11-17T04:26:46.547Z,98745.47
2022-11-17T04:29:15.008Z,98740.75
2022-11-17T04:31:43.438Z,98762.13
2022-11-17T04:34:11.903Z,98743.31
2022-11-17T04:36:44.437Z,98727.66
2022-11-17T04:39:15.293Z,98731.00
2022-11-17T04:41:56.919Z,98725.41
2022-11-17T04:44:28.514Z,98732.63
2022-11-17T04:46:57.829Z,98743.53
2022-11-17T04:49:27.447Z,98745.69
2022-11-17T04:51:57.395Z,98729.28
2022-11-17T04:54:26.274Z,98726.63
2022-11-17T04:56:56.040Z,98734.53
2022-11-17T04:59:24.877Z,98728.47
2022-11-17T05:01:53.285Z,98727.47
2022-11-17T05:04:36.753Z,98718.56
2022-11-17T05:07:05.596Z,98717.91
2022-11-17T05:09:34.300Z,98716.75
2022-11-17T05:12:20.068Z,98719.53
2022-11-17T05:14:50.258Z,98711.94
2022-11-17T05:17:17.815Z,98720.56
2022-11-17T05:19:48.319Z,98724.81
2022-11-17T05:22:41.145Z,98716.41
2022-11-17T05:25:11.047Z,98708.88
2022-11-17T05:27:40.277Z,98701.09
2022-11-17T05:30:10.128Z,98689.22
2022-11-17T05:32:38.570Z,98689.94
2022-11-17T05:35:07.463Z,98694.00
2022-11-17T05:37:35.866Z,98692.41
2022-11-17T05:40:04.381Z,98684.63
2022-11-17T05:42:32.794Z,98694.69
2022-11-17T05:45:01.196Z,98695.41
2022-11-17T05:47:29.603Z,98688.31
2022-11-17T05:49:57.928Z,98703.47
2022-11-17T05:52:26.316Z,98677.31
2022-11-17T05:54:54.709Z,98664.13
2022-11-17T05:57:30.313Z,98667.56
2022-11-17T06:00:04.601Z,98656.69
2022-11-17T06:02:42.437Z,98658.16
2022-11-17T06:05:15.648Z,98645.63
2022-11-17T06:07:48.042Z,98641.50
2022-11-17T06:10:16.604Z,98624.59
2022-11-17T06:12:45.078Z,98629.50
2022-11-17T06:15:13.949Z,98628.91
2022-11-17T06:18:01.270Z,98623.63
2022-11-17T06:20:39.466Z,98619.16
2022-11-17T06:23:08.995Z,98627.94
2022-11-17T06:25:38.727Z,98629.81
2022-11-17T06:28:12.675Z,98623.28
2022-11-17T06:30:42.228Z,98619.16
2022-11-17T06:33:14.057Z,98605.50
2022-11-17T06:35:42.879Z,98605.13
2022-11-17T06:38:11.401Z,98607.94
2022-11-17T06:40:39.895Z,98612.28
2022-11-17T06:43:09.629Z,98625.13
2022-11-17T06:45:41.879Z,98604.19
2022-11-17T06:48:11.953Z,98611.25
2022-11-17T06:50:40.447Z,98618.38
2022-11-17T06:53:12.422Z,98619.31
2022-11-17T06:55:41.811Z,98621.66
2022-11-17T06:58:12.412Z,98629.22
2022-11-17T07:00:40.895Z,98630.63
2022-11-17T07:03:11.511Z,98613.63
2022-11-17T07:05:40.637Z,98621.06
2022-11-17T07:08:10.239Z,98620.25
2022-11-17T07:10:38.963Z,98615.50
2022-11-17T07:13:07.425Z,98610.53
2022-11-17T07:15:35.864Z,98619.44
2022-11-17T07:18:04.355Z,98623.06
2022-11-17T07:20:32.874Z,98632.25
2022-11-17T07:23:01.499Z,98640.38
2022-11-17T07:25:31.537Z,98631.19
2022-11-17T07:28:01.119Z,98638.31
2022-11-17T07:30:29.825Z,98634.31
2022-11-17T07:33:00.937Z,98632.13
2022-11-17T07:35:29.671Z,98646.63
2022-11-17T07:38:01.551Z,98624.06
2022-11-17T07:40:33.121Z,98609.53
2022-11-17T07:43:01.609Z,98611.97
2022-11-17T07:45:31.892Z,98595.53
2022-11-17T07:48:03.526Z,98602.63
2022-11-17T07:50:32.216Z,98604.63
2022-11-17T07:53:00.739Z,98613.66
2022-11-17T07:55:29.259Z,98609.31
2022-11-17T07:58:02.438Z,98620.69
2022-11-17T08:00:33.701Z,98605.22
2022-11-17T08:03:04.223Z,98615.94
2022-11-17T08:05:41.751Z,98621.50
2022-11-17T08:08:13.433Z,98613.50
2022-11-17T08:10:43.057Z,98589.44
2022-11-17T08:13:11.492Z,98596.56
2022-11-17T08:15:42.118Z,98591.75
2022-11-17T08:18:10.527Z,98591.03
2022-11-17T08:20:39.096Z,98586.75
2022-11-17T08:23:08.060Z,98583.22
2022-11-17T08:25:36.514Z,98594.13
2022-11-17T08:28:05.098Z,98596.50
2022-11-17T08:30:35.561Z,98590.78
2022-11-17T08:33:04.353Z,98587.66
2022-11-17T08:35:37.264Z,98577.94
2022-11-17T08:38:06.194Z,98588.03
2022-11-17T08:40:34.900Z,98577.38
2022-11-17T08:43:03.385Z,98577.75
2022-11-17T08:45:31.905Z,98587.19
2022-11-17T08:48:00.547Z,98577.47
2022-11-17T08:50:29.047Z,98579.00
2022-11-17T08:52:57.471Z,98586.91
2022-11-17T08:55:26.730Z,98577.84
2022-11-17T08:57:55.192Z,98567.88
2022-11-17T09:00:23.810Z,98568.69
2022-11-17T09:02:52.226Z,98582.66
2022-11-17T09:05:21.050Z,98556.16
2022-11-17T09:07:49.605Z,98569.50
2022-11-17T09:10:18.146Z,98574.25
2022-11-17T09:12:46.596Z,98564.34
2022-11-17T09:15:15.143Z,98558.06
2022-11-17T09:17:47.719Z,98557.88
2022-11-17T09:20:17.645Z,98567.28
2022-11-17T09:22:46.814Z,98562.78
2022-11-17T09:25:15.592Z,98567.38
2022-11-17T09:27:44.072Z,98570.53
2022-11-17T09:30:12.861Z,98568.63
2022-11-17T09:32:41.287Z,98566.00
2022-11-17T09:35:10.960Z,98574.00
2022-11-17T09:37:39.449Z,98577.47
2022-11-17T09:40:08.804Z,98577.75
2022-11-17T09:42:41.255Z,98586.47
2022-11-17T09:45:23.641Z,98580.47
2022-11-17T09:51:15.013Z,98589.84
2022-11-17T09:53:58.330Z,98567.91
2022-11-17T09:56:28.628Z,98555.91
2022-11-17T09:59:04.305Z,98561.63
2022-11-17T10:01:32.873Z,98561.44
2022-11-17T10:04:01.561Z,98561.91
2022-11-17T10:06:31.966Z,98547.78
2022-11-17T10:09:03.204Z,98550.06
2022-11-17T10:11:39.452Z,98543.16
2022-11-17T10:14:10.725Z,98537.44
2022-11-17T10:16:41.619Z,98531.84
2022-11-17T10:19:32.079Z,98518.41
2022-11-17T10:22:03.313Z,98548.88
2022-11-17T10:24:41.505Z,98539.31
2022-11-17T10:27:18.670Z,98531.22
2022-11-17T10:30:20.239Z,98520.66
2022-11-17T10:33:00.576Z,98521.13
2022-11-17T10:35:35.046Z,98525.41
2022-11-17T10:38:20.860Z,98512.91
2022-11-17T10:40:53.777Z,98487.72
2022-11-17T10:43:31.642Z,98484.25
2022-11-17T10:46:15.710Z,98482.09
2022-11-17T10:49:00.649Z,98486.38
2022-11-17T10:51:33.011Z,98484.91
2022-11-17T10:54:19.374Z,98488.19
2022-11-17T10:56:57.670Z,98492.94
2022-11-17T10:59:33.126Z,98490.28
2022-11-17T11:02:21.128Z,98494.53
2022-11-17T11:04:49.574Z,98486.16
2022-11-17T11:07:23.665Z,98490.91
2022-11-17T11:10:18.099Z,98478.00
2022-11-17T11:12:59.349Z,98473.72
2022-11-17T11:15:37.618Z,98469.53
2022-11-17T11:18:19.914Z,98472.91
2022-11-17T11:21:07.406Z,98468.91
2022-11-17T11:23:54.475Z,98462.22
2022-11-17T11:26:47.022Z,98465.91
2022-11-17T11:29:57.769Z,98471.09
2022-11-17T11:32:47.833Z,98480.97
2022-11-17T11:36:03.130Z,98468.00
2022-11-17T11:39:03.109Z,98458.44
2022-11-17T11:41:54.953Z,98454.97
2022-11-17T11:44:44.028Z,98450.97
2022-11-17T11:47:46.836Z,98459.34
2022-11-17T11:50:22.594Z,98445.06
2022-11-17T11:53:08.624Z,98443.25
2022-11-17T11:55:37.862Z,98447.69
2022-11-17T11:58:26.478Z,98434.38
2022-11-17T12:01:06.544Z,98446.41
2022-11-17T12:03:49.237Z,98435.03
2022-11-17T12:06:43.680Z,98420.00
2022-11-17T12:09:56.789Z,98428.28
2022-11-17T12:12:37.797Z,98437.56
2022-11-17T12:15:20.051Z,98426.09
2022-11-17T12:17:53.978Z,98426.28
2022-11-17T12:20:40.928Z,98433.06
2022-11-17T12:23:38.307Z,98425.53
2022-11-17T12:26:07.142Z,98430.81
2022-11-17T12:28:41.914Z,98421.72
2022-11-17T12:31:44.723Z,98425.81
2022-11-17T12:34:35.840Z,98435.38
2022-11-17T12:37:15.872Z,98431.16
2022-11-17T12:39:54.290Z,98441.72
2022-11-17T12:42:22.900Z,98422.50
2022-11-17T12:44:58.131Z,98432.06
2022-11-17T12:47:27.861Z,98428.97
2022-11-17T12:50:19.955Z,98422.75
2022-11-17T12:53:11.990Z,98433.56
2022-11-17T12:56:05.828Z,98433.00
2022-11-17T12:58:46.184Z,98444.84
2022-11-17T13:01:49.386Z,98421.34
2022-11-17T13:04:34.961Z,98425.78
2022-11-17T13:07:09.591Z,98406.94
2022-11-17T13:09:38.573Z,98426.72
2022-11-17T13:12:12.290Z,98420.03
2022-11-17T13:14:56.858Z,98416.16
2022-11-17T13:17:35.505Z,98419.84
2022-11-17T13:20:29.009Z,98417.03
2022-11-17T13:23:16.064Z,98410.03
2022-11-17T13:25:44.569Z,98413.56
2022-11-17T13:28:32.338Z,98416.28
2022-11-17T13:31:02.452Z,98411.53
2022-11-17T13:33:36.936Z,98413.63
2022-11-17T13:36:20.474Z,98404.69
2022-11-17T13:38:54.757Z,98398.84
2022-11-17T13:41:25.803Z,98405.56
2022-11-17T13:43:55.363Z,98406.81
2022-11-17T13:46:23.849Z,98396.75
2022-11-17T13:48:52.583Z,98399.38
2022-11-17T13:51:38.514Z,98395.38
2022-11-17T13:54:13.112Z,98400.84
2022-11-17T13:56:53.068Z,98409.19
2022-11-17T13:59:32.012Z,98399.88
2022-11-17T14:02:19.412Z,98408.63
2022-11-17T14:05:14.433Z,98419.22
2022-11-17T14:07:44.539Z,98396.81
2022-11-17T14:10:14.874Z,98400.47
2022-11-17T14:12:43.728Z,98403.13
2022-11-17T14:15:38.035Z,98408.13
2022-11-17T14:18:25.006Z,98403.50
2022-11-17T14:21:08.152Z,98404.44
2022-11-17T14:23:36.925Z,98400.75
2022-11-17T14:26:05.818Z,98397.13
2022-11-17T14:28:34.287Z,98405.06
2022-11-17T14:31:02.795Z,98397.72
2022-11-17T14:33:31.298Z,98404.16
2022-11-17T14:36:01.017Z,98412.09
2022-11-17T14:38:29.662Z,98408.84
2022-11-17T14:40:58.060Z,98409.22
2022-11-17T14:43:26.507Z,98405.13
2022-11-17T14:45:55.174Z,98411.94
2022-11-17T14:48:23.680Z,98409.50
2022-11-17T14:50:59.108Z,98397.22
2022-11-17T14:53:27.704Z,98394.75
2022-11-17T14:55:56.145Z,98393.44
2022-11-17T14:58:24.550Z,98391.28
2022-11-17T15:00:52.985Z,98406.75
2022-11-17T15:03:21.614Z,98402.50
2022-11-17T15:05:50.419Z,98416.69
2022-11-17T15:08:18.992Z,98399.53
2022-11-17T15:10:47.453Z,98401.47
2022-11-17T15:13:15.855Z,98405.66
2022-11-17T15:15:44.301Z,98410.03
2022-11-17T15:18:13.180Z,98412.41
2022-11-17T15:20:41.670Z,98411.25
2022-11-17T15:23:10.105Z,98414.56
2022-11-17T15:25:39.866Z,98413.22
2022-11-17T15:28:08.792Z,98411.13
2022-11-17T15:30:37.257Z,98418.88
2022-11-17T15:33:05.959Z,98426.63
2022-11-17T15:35:34.434Z,98433.16
2022-11-17T15:38:03.002Z,98433.38
2022-11-17T15:40:31.432Z,98430.34
2022-11-17T15:42:59.949Z,98432.38
2022-11-17T15:45:28.433Z,98428.53
2022-11-17T15:47:57.906Z,98434.63
2022-11-17T15:50:27.208Z,98430.19
2022-11-17T15:53:03.977Z,98419.63
2022-11-17T15:55:34.564Z,98418.59
2022-11-17T15:58:03.096Z,98425.91
2022-11-17T16:00:33.218Z,98429.81
2022-11-17T16:03:01.815Z,98429.59
2022-11-17T16:05:30.236Z,98430.81
2022-11-17T16:07:58.681Z,98427.41
2022-11-17T16:10:27.510Z,98428.47
2022-11-17T16:12:56.477Z,98434.94
2022-11-17T16:15:24.960Z,98426.84
2022-11-17T16:17:53.451Z,98419.97
2022-11-17T16:20:21.990Z,98419.72
2022-11-17T16:22:50.616Z,98413.25
2022-11-17T16:25:19.154Z,98412.44
2022-11-17T16:27:47.295Z,98411.44
2022-11-17T16:30:16.112Z,98407.97
2022-11-17T16:32:44.582Z,98414.13
2022-11-17T16:35:13.041Z,98411.22
2022-11-17T16:37:41.489Z,98404.13
2022-11-17T16:40:10.863Z,98401.03
2022-11-17T16:42:39.358Z,98406.16
2022-11-17T16:45:08.219Z,98407.31
2022-11-17T16:47:36.798Z,98418.91
2022-11-17T16:50:05.463Z,98412.81
2022-11-17T16:52:35.826Z,98404.06
2022-11-17T16:55:05.370Z,98407.16
2022-11-17T16:57:33.954Z,98407.31
2022-11-17T17:00:03.017Z,98407.75
2022-11-17T17:02:33.008Z,98409.56
2022-11-17T17:05:01.842Z,98410.59
2022-11-17T17:07:30.318Z,98412.81
2022-11-17T17:09:58.802Z,98420.75
2022-11-17T17:12:28.319Z,98416.06
2022-11-17T17:14:56.850Z,98412.81
2022-11-17T17:17:25.382Z,98405.50
2022-11-17T17:19:54.631Z,98407.16
2022-11-17T17:22:23.061Z,98417.03
2022-11-17T17:24:51.524Z,98415.44
2022-11-17T17:27:19.986Z,98405.88
2022-11-17T17:29:48.484Z,98414.63
2022-11-17T17:32:16.949Z,98408.97
2022-11-17T17:34:45.383Z,98411.44
2022-11-17T17:37:13.785Z,98405.50
2022-11-17T17:39:42.431Z,98417.06
2022-11-17T17:42:10.839Z,98420.09
2022-11-17T17:44:39.289Z,98430.88
2022-11-17T17:47:07.704Z,98433.75
2022-11-17T17:49:36.196Z,98433.88
2022-11-17T17:52:08.498Z,98438.97
2022-11-17T17:54:40.972Z,98440.22
2022-11-17T17:57:10.467Z,98441.22
2022-11-17T17:59:38.935Z,98439.63
2022-11-17T18:02:07.414Z,98436.59
2022-11-17T18:04:35.871Z,98422.72
2022-11-17T18:07:04.372Z,98427.28
2022-11-17T18:09:33.141Z,98422.69
2022-11-17T18:12:01.494Z,98430.00
2022-11-17T18:14:29.928Z,98432.63
2022-11-17T18:16:58.675Z,98436.28
2022-11-17T18:19:32.934Z,98446.19
2022-11-17T18:22:02.320Z,98445.66
2022-11-17T18:24:32.181Z,98450.69
2022-11-17T18:27:00.595Z,98443.38
2022-11-17T18:29:31.100Z,98444.44
2022-11-17T18:31:59.205Z,98446.19
2022-11-17T18:34:27.610Z,98454.34
2022-11-17T18:36:57.096Z,98446.19
2022-11-17T18:39:27.387Z,98453.13
2022-11-17T18:41:56.129Z,98447.03
2022-11-17T18:44:24.514Z,98452.06
2022-11-17T18:46:55.046Z,98457.81
2022-11-17T18:49:26.987Z,98461.25
2022-11-17T18:51:55.401Z,98452.63
2022-11-17T18:54:25.181Z,98468.09
2022-11-17T18:56:53.600Z,98467.94
2022-11-17T18:59:22.170Z,98463.03
2022-11-17T19:01:50.441Z,98456.16
2022-11-17T19:04:19.394Z,98464.69
2022-11-17T19:06:50.080Z,98461.25
2022-11-17T19:09:19.784Z,98460.25
2022-11-17T19:11:48.251Z,98454.13
2022-11-17T19:14:18.025Z,98457.97
2022-11-17T19:16:46.398Z,98455.34
2022-11-17T19:19:15.740Z,98457.97
2022-11-17T19:21:44.909Z,98455.72
2022-11-17T19:24:13.743Z,98461.50
2022-11-17T19:26:42.947Z,98460.69
2022-11-17T19:29:17.036Z,98454.41
2022-11-17T19:31:47.482Z,98454.19
2022-11-17T19:34:16.761Z,98456.84
2022-11-17T19:36:45.590Z,98443.22
2022-11-17T19:39:15.284Z,98440.97
2022-11-17T19:41:47.699Z,98459.47
2022-11-17T19:44:21.470Z,98462.50
2022-11-17T19:46:50.003Z,98454.72
2022-11-17T19:49:18.758Z,98454.44
2022-11-17T19:51:49.113Z,98461.13
2022-11-17T19:54:17.751Z,98457.00
2022-11-17T19:56:46.202Z,98463.03
2022-11-17T19:59:16.676Z,98449.16
2022-11-17T20:01:46.450Z,98451.81
2022-11-17T20:04:14.916Z,98447.97
2022-11-17T20:06:43.349Z,98448.59
2022-11-17T20:09:15.043Z,98453.44
2022-11-17T20:11:44.059Z,98462.44
2022-11-17T20:14:14.307Z,98452.69
2022-11-17T20:16:42.765Z,98475.09
2022-11-17T20:19:11.615Z,98468.38
2022-11-17T20:21:40.263Z,98461.00
2022-11-17T20:24:08.981Z,98471.41
2022-11-17T20:26:40.612Z,98474.84
2022-11-17T20:29:09.226Z,98475.09
2022-11-17T20:31:38.154Z,98483.09
2022-11-17T20:34:06.932Z,98474.84
2022-11-17T20:36:35.947Z,98475.41
2022-11-17T20:39:07.340Z,98480.94
2022-11-17T20:41:36.068Z,98483.59
2022-11-17T20:44:04.563Z,98477.31
2022-11-17T20:46:32.993Z,98472.38
2022-11-17T20:49:01.397Z,98478.38
2022-11-17T20:51:30.021Z,98483.19
2022-11-17T20:53:58.430Z,98480.94
2022-11-17T20:56:26.896Z,98486.16
2022-11-17T20:58:55.274Z,98482.78
2022-11-17T21:01:24.421Z,98482.97
2022-11-17T21:03:53.223Z,98475.03
2022-11-17T21:06:24.803Z,98481.75
2022-11-17T21:08:53.764Z,98473.28
2022-11-17T21:11:42.031Z,98475.84
2022-11-17T21:14:13.305Z,98485.06
2022-11-17T21:16:46.596Z,98481.97
2022-11-17T21:19:16.069Z,98480.16
2022-11-17T21:21:45.932Z,98485.06
2022-11-17T21:24:14.642Z,98483.97
2022-11-17T21:26:45.552Z,98472.22
2022-11-17T21:29:16.200Z,98475.78
2022-11-17T21:31:44.806Z,98487.81
2022-11-17T21:34:17.422Z,98502.59
2022-11-17T21:36:46.293Z,98511.13
2022-11-17T21:39:18.536Z,98517.06
2022-11-17T21:41:47.305Z,98517.25
2022-11-17T21:44:15.830Z,98520.97
2022-11-17T21:46:44.263Z,98524.63
2022-11-17T21:49:12.717Z,98530.72
2022-11-17T21:51:41.115Z,98524.44
2022-11-17T21:54:10.904Z,98531.06
2022-11-17T21:56:40.288Z,98525.69
2022-11-17T21:59:13.204Z,98524.69
2022-11-17T22:01:41.889Z,98522.31
2022-11-17T22:04:13.628Z,98523.69
2022-11-17T22:06:44.618Z,98508.84
2022-11-17T22:09:14.176Z,98496.75
2022-11-17T22:11:42.876Z,98499.63
2022-11-17T22:14:16.098Z,98501.97
2022-11-17T22:16:46.999Z,98507.06
2022-11-17T22:19:17.939Z,98504.56
2022-11-17T22:21:49.422Z,98504.72
2022-11-17T22:24:17.881Z,98496.56
2022-11-17T22:26:46.890Z,98500.50
2022-11-17T22:29:21.892Z,98505.78
2022-11-17T22:31:51.186Z,98503.78
2022-11-17T22:34:20.232Z,98519.38
2022-11-17T22:36:48.695Z,98528.53
2022-11-17T22:39:18.063Z,98531.47
2022-11-17T22:41:46.809Z,98539.41
2022-11-17T22:44:16.582Z,98551.25
2022-11-17T22:46:45.687Z,98539.59
2022-11-17T22:49:14.780Z,98542.25
2022-11-17T22:52:01.063Z,98538.25
2022-11-17T22:54:30.300Z,98539.69
2022-11-17T22:56:59.445Z,98552.53
2022-11-17T22:59:29.805Z,98558.91
2022-11-17T23:01:58.623Z,98559.72
2022-11-17T23:04:27.027Z,98562.75
2022-11-17T23:06:55.639Z,98558.19
2022-11-17T23:09:24.120Z,98557.34
2022-11-17T23:11:52.639Z,98559.19
2022-11-17T23:14:21.349Z,98559.66
2022-11-17T23:16:49.887Z,98562.00
2022-11-17T23:19:18.490Z,98560.00
2022-11-17T23:21:47.076Z,98567.50
2022-11-17T23:24:15.696Z,98571.22
2022-11-17T23:26:44.518Z,98570.13
2022-11-17T23:29:12.948Z,98572.03
2022-11-17T23:31:41.485Z,98561.34
2022-11-17T23:34:11.464Z,98560.16
2022-11-17T23:36:40.214Z,98562.09
2022-11-17T23:39:09.021Z,98564.13
2022-11-17T23:41:38.267Z,98570.84
2022-11-17T23:44:07.021Z,98576.75
2022-11-17T23:46:35.723Z,98578.69
2022-11-17T23:49:04.813Z,98578.06
2022-11-17T23:51:33.309Z,98577.22
2022-11-17T23:54:03.229Z,98578.94
2022-11-17T23:56:35.733Z,98570.38
2022-11-17T23:59:04.782Z,98570.38
